• Join FlightAware (Why Join?)
  • Login
  • US Flag 
03:41AM EDT


 

Airport Tracker/Info


-or-


 

Live Flight TrackerFlight Track Log ✈ FFT532 ✈ 12-Jul-2013 ✈ KMDW - KTTN

Flight Track Log - Related Links

Times and Time Zones

All times are in EDT time to prevent confusion due to time zone crossing. See the FFT532 flight status page for this flight to view local times or setup timezone preferences in your user account.

Time Position Orientation Groundspeed Altitude Reporting Facility
EDT Latitude Longitude Course Direction KTS MPH feet Rate Location/Type
12:38PM 41.8333 -87.7500 98° East 190 219 2,600  Level Chicago TRACON
12:39PM 41.8278 -87.6967 98° East 230 265 3,400 840 Climbing Chicago Center
12:40PM 41.8336 -87.6014 85° East 247 284 4,000 1,020 Climbing Chicago Center
12:41PM 41.8369 -87.5067 87° East 253 291 5,600 2,220 Climbing Chicago Center
12:42PM 41.8297 -87.4075 96° East 275 316 8,600 2,700 Climbing Chicago Center
12:43PM 41.8106 -87.3042 104° East 283 326 11,300 2,340 Climbing Chicago Center
12:44PM 41.7881 -87.1881 105° East 308 354 13,500 2,400 Climbing Chicago Center
12:45PM 41.7636 -87.0372 102° East 348 400 16,300 2,340 Climbing Chicago Center
12:46PM 41.7639 -86.9056 90° East 355 409 18,400 1,980 Climbing Chicago Center
12:47PM 41.7644 -86.7661 90° East 370 426 20,500 1,920 Climbing Chicago Center
12:48PM 41.7658 -86.6214 89° East 382 440 22,500 1,920 Climbing Chicago Center
12:49PM 41.7667 -86.4750 90° East 392 451 24,500 1,800 Climbing Chicago Center
12:50PM 41.7686 -86.3264 89° East 399 459 26,300 1,620 Climbing Chicago Center
12:51PM 41.7697 -86.1744 89° East 406 467 27,900 1,920 Climbing Chicago Center
12:52PM 41.7717 -85.9936 89° East 405 466 30,300 1,560 Climbing Chicago Center
12:53PM 41.7739 -85.8428 89° East 405 466 31,200 1,020 Climbing Chicago Center
12:54PM 41.7758 -85.6867 89° East 414 476 32,500 1,260 Climbing Chicago Center
12:55PM 41.7794 -85.5297 88° East 417 480 33,900 1,200 Climbing Chicago Center
12:56PM 41.7792 -85.3700 90° East 417 480 35,000 1,020 Climbing Chicago Center
12:57PM 41.7792 -85.2114 90° East 419 482 36,100 1,200 Climbing Chicago Center
12:58PM 41.7792 -85.0606 90° East 410 472 37,600 780 Climbing Chicago Center
12:59PM 41.7800 -84.9131 90° East 399 459 37,800 240 Climbing Chicago Center
01:00PM 41.7792 -84.7233 90° East 420 483 38,200 480 Climbing Chicago Center
01:01PM 41.7781 -84.5669 90° East 421 484 38,800 480 Climbing Chicago Center
01:02PM 41.7792 -84.4789 89° East 410 472 39,000 120 Climbing Cleveland Center
01:03PM 41.7717 -84.3253 94° East 410 472 39,000  Level Cleveland Center
01:04PM 41.7592 -84.1939 97° East 404 465 39,000  Level Cleveland Center
01:05PM 41.7494 -84.0400 95° East 404 465 39,000  Level Cleveland Center
01:06PM 41.7392 -83.8919 95° East 404 465 39,000  Level Cleveland Center
01:07PM 41.7267 -83.7411 96° East 409 471 39,000  Level Cleveland Center
01:08PM 41.7164 -83.5875 95° East 409 471 39,000  Level Cleveland Center
01:09PM 41.7033 -83.4367 97° East 409 471 39,000  Level Cleveland Center
01:10PM 41.6944 -83.2861 94° East 409 471 39,000  Level Cleveland Center
01:11PM 41.6647 -83.1319 104° East 414 476 39,000  Level Cleveland Center
01:12PM 41.6203 -82.9692 110° East 419 482 39,000  Level Cleveland Center
01:13PM 41.5775 -82.8150 110° East 434 499 39,000  Level Cleveland Center
01:14PM 41.5344 -82.6636 111° Southeast 434 499 39,000  Level Cleveland Center
01:15PM 41.4933 -82.5125 110° East 434 499 39,000  Level Cleveland Center
01:16PM 41.4522 -82.3589 110° East 434 499 39,000  Level Cleveland Center
01:17PM 41.4106 -82.2111 111° Southeast 434 499 39,000  Level Cleveland Center
01:18PM 41.3708 -82.0606 109° East 434 499 39,000  Level Cleveland Center
01:19PM 41.3311 -81.9106 109° East 434 499 39,000  Level Cleveland Center
01:20PM 41.2867 -81.7658 112° Southeast 434 499 39,000  Level Cleveland Center
01:21PM 41.2444 -81.6186 111° Southeast 429 494 39,000  Level Cleveland Center
01:22PM 41.2019 -81.4744 111° Southeast 429 494 39,000  Level Cleveland Center
01:23PM 41.1550 -81.3222 112° Southeast 434 499 39,000  Level Cleveland Center
01:24PM 41.1122 -81.1783 111° Southeast 434 499 39,000  Level Cleveland Center
01:25PM 41.0731 -81.0294 109° East 429 494 39,000  Level Cleveland Center
01:26PM 41.0278 -80.8858 113° Southeast 429 494 39,000  Level Cleveland Center
01:27PM 40.9883 -80.7428 110° East 429 494 39,000  Level Cleveland Center
01:28PM 40.9447 -80.6022 112° Southeast 423 487 39,000  Level Cleveland Center
01:29PM 40.9031 -80.4594 111° Southeast 417 480 39,000  Level Cleveland Center
01:30PM 40.8547 -80.3169 114° Southeast 417 480 39,000  Level Cleveland Center
01:31PM 40.8086 -80.1717 113° Southeast 417 480 39,000  Level Cleveland Center
01:32PM 40.7600 -80.0347 115° Southeast 417 480 39,100  Climbing Cleveland Center
01:33PM 40.7114 -79.8900 114° Southeast 422 486 39,000 -60 Descending Cleveland Center
01:34PM 40.6603 -79.7511 116° Southeast 422 486 39,000  Level Cleveland Center
01:35PM 40.6092 -79.6150 116° Southeast 422 486 39,000  Level Cleveland Center
01:36PM 40.5581 -79.4764 116° Southeast 422 486 39,000  Level Cleveland Center
01:37PM 40.5086 -79.3378 115° Southeast 422 486 39,000  Level Cleveland Center
01:38PM 40.4861 -79.2017 102° East 416 479 39,000 -300 Level Cleveland Center
01:39PM 40.4717 -79.0383 97° East 422 486 38,400 -1,200 Descending Cleveland Center
01:40PM 40.4608 -78.8803 95° East 433 498 36,700 -2,340 Descending Cleveland Center
01:41PM 40.4481 -78.7142 96° East 444 511 33,800 -2,880 Descending Cleveland Center
01:42PM 40.4347 -78.5508 96° East 444 511 31,000 -2,760 Descending Cleveland Center
01:43PM 40.4214 -78.3875 96° East 444 511 28,300 -3,000 Descending Cleveland Center
01:44PM 40.4114 -78.2653 96° East 435 501 26,000 -2,040 Descending New York Center
01:45PM 40.3978 -78.1164 97° East 421 484 25,000 -540 Descending New York Center
01:46PM 40.3856 -77.9761 96° East 406 467 25,000  Level New York Center
01:47PM 40.3728 -77.8414 97° East 384 442 25,000 -300 Level New York Center
01:48PM 40.3603 -77.7011 97° East 384 442 24,500 -2,160 Descending New York Center
01:49PM 40.3411 -77.5656 100° East 378 435 20,800 -2,760 Descending New York Center
01:50PM 40.3203 -77.4164 100° East 393 452 19,000 -900 Descending New York Center
01:51PM 40.3044 -77.2897 99° East 400 460 19,000  Level New York Center
01:52PM 40.2836 -77.1353 100° East 394 453 19,000  Level New York Center
01:53PM 40.2672 -77.0142 100° East 387 445 19,000  Level New York Center
01:54PM 40.2461 -76.8625 100° East 387 445 19,000  Level New York Center
01:55PM 40.2272 -76.7386 101° East 387 445 19,000  Level New York Center
01:56PM 40.2056 -76.5872 101° East 382 440 19,000 -480 Level New York Center
01:57PM 40.1872 -76.4525 100° East 374 430 18,100 -1,860 Descending New York Center
01:58PM 40.1686 -76.3206 100° East 374 430 15,300 -2,940 Descending New York Center
01:59PM 40.1514 -76.1969 100° East 379 436 12,200 -2,280 Descending New York Center
02:00PM 40.1303 -76.0650 102° East 373 429 10,800 -1,020 Descending New York Center
02:01PM 40.1125 -75.9494 101° East 318 366 10,300 -1,080 Descending New York Center
02:02PM 40.0978 -75.8561 102° East 281 323 8,700 -1,500 Descending New York Center
02:03PM 40.0847 -75.7683 101° East 267 307 7,300 -1,440 Descending New York Center
02:04PM 40.0831 -75.6625 91° East 256 295 6,000 -960 Descending New York Center
02:05PM 40.0883 -75.5842 85° East 250 288 5,500 -540 Descending New York Center
02:06PM 40.1028 -75.4847 79° East 250 288 5,000 -300 Descending New York Center
02:07PM 40.1142 -75.4042 80° East 250 288 5,000  Level New York Center
02:08PM 40.1283 -75.3100 79° East 250 288 5,000  Level New York Center
02:09PM 40.1369 -75.2453 80° East 205 236 5,000 -540 Level New York Center
02:10PM 40.1433 -75.1914 81° East 171 197 4,000 -1,020 Descending New York Center
02:11PM 40.1311 -75.1228 103° East 165 190 3,000 -540 Descending New York Center
02:12PM 40.1228 -75.0706 102° East 165 190 3,000  Level New York Center
02:13PM 40.1667 -74.9667 61° Northeast 167 192 3,000 -300 Level Philadelphia TRACON
02:14PM 40.2000 -74.9333 37° Northeast 158 182 2,300 -840 Descending Philadelphia TRACON
02:15PM 40.2333 -74.8833 49° Northeast 161 185 1,400 -780 Descending Philadelphia TRACON
02:16PM 40.2500 -74.8500 57° Northeast 130 150 900 -600 Descending Philadelphia TRACON
02:18PM 40.2667 -74.8000 78° East  Level FlightAware Approximate
02:25PM 40.2767 -74.8135 78° East  Level Estimated